sensor_id;sensor_type;location;lat;lon;timestamp;P1;durP1;ratioP1;P2;durP2;ratioP2
50219;SDS011;36110;51.536;7.562;2023-03-01T00:01:06;5.35;;;4.80;;
50219;SDS011;36110;51.536;7.562;2023-03-01T00:03:32;6.38;;;5.15;;
50219;SDS011;36110;51.536;7.562;2023-03-01T00:05:58;6.13;;;4.88;;
50219;SDS011;36110;51.536;7.562;2023-03-01T00:08:24;6.13;;;5.20;;
50219;SDS011;36110;51.536;7.562;2023-03-01T00:10:50;9.15;;;5.88;;
50219;SDS011;36110;51.536;7.562;2023-03-01T00:13:27;6.18;;;4.78;;
50219;SDS011;36110;51.536;7.562;2023-03-01T00:15:52;6.10;;;4.90;;
50219;SDS011;36110;51.536;7.562;2023-03-01T00:18:17;9.95;;;5.22;;
50219;SDS011;36110;51.536;7.562;2023-03-01T00:20:48;6.47;;;4.90;;
50219;SDS011;36110;51.536;7.562;2023-03-01T00:23:17;5.43;;;4.65;;
50219;SDS011;36110;51.536;7.562;2023-03-01T00:25:43;5.95;;;4.70;;
50219;SDS011;36110;51.536;7.562;2023-03-01T00:28:08;6.65;;;5.18;;
50219;SDS011;36110;51.536;7.562;2023-03-01T00:30:34;5.60;;;4.50;;
50219;SDS011;36110;51.536;7.562;2023-03-01T00:32:59;6.55;;;4.55;;
50219;SDS011;36110;51.536;7.562;2023-03-01T00:35:24;5.50;;;4.65;;
50219;SDS011;36110;51.536;7.562;2023-03-01T00:37:50;7.88;;;5.03;;
50219;SDS011;36110;51.536;7.562;2023-03-01T00:40:22;7.82;;;5.22;;
50219;SDS011;36110;51.536;7.562;2023-03-01T00:42:50;6.22;;;4.90;;
50219;SDS011;36110;51.536;7.562;2023-03-01T00:45:16;5.93;;;4.40;;
50219;SDS011;36110;51.536;7.562;2023-03-01T00:47:42;6.35;;;4.85;;
50219;SDS011;36110;51.536;7.562;2023-03-01T00:50:07;6.75;;;4.70;;
50219;SDS011;36110;51.536;7.562;2023-03-01T00:52:33;5.03;;;4.50;;
50219;SDS011;36110;51.536;7.562;2023-03-01T00:54:58;6.05;;;4.68;;
50219;SDS011;36110;51.536;7.562;2023-03-01T00:57:24;5.50;;;4.80;;
50219;SDS011;36110;51.536;7.562;2023-03-01T00:59:49;4.57;;;4.15;;
50219;SDS011;36110;51.536;7.562;2023-03-01T01:02:14;5.75;;;4.68;;
50219;SDS011;36110;51.536;7.562;2023-03-01T01:04:40;6.95;;;4.57;;
50219;SDS011;36110;51.536;7.562;2023-03-01T01:07:05;5.05;;;4.25;;
50219;SDS011;36110;51.536;7.562;2023-03-01T01:09:31;5.40;;;4.47;;
50219;SDS011;36110;51.536;7.562;2023-03-01T01:11:56;5.72;;;4.78;;
50219;SDS011;36110;51.536;7.562;2023-03-01T01:14:21;5.43;;;4.60;;
50219;SDS011;36110;51.536;7.562;2023-03-01T01:16:47;5.38;;;4.55;;
50219;SDS011;36110;51.536;7.562;2023-03-01T01:19:13;5.28;;;4.55;;
50219;SDS011;36110;51.536;7.562;2023-03-01T01:21:39;5.25;;;4.50;;
50219;SDS011;36110;51.536;7.562;2023-03-01T01:24:05;6.93;;;4.88;;
50219;SDS011;36110;51.536;7.562;2023-03-01T01:26:31;5.63;;;4.72;;
50219;SDS011;36110;51.536;7.562;2023-03-01T01:28:58;5.53;;;4.53;;
50219;SDS011;36110;51.536;7.562;2023-03-01T01:31:25;4.88;;;4.38;;
50219;SDS011;36110;51.536;7.562;2023-03-01T01:33:52;5.40;;;4.45;;
50219;SDS011;36110;51.536;7.562;2023-03-01T01:36:18;5.70;;;4.78;;
50219;SDS011;36110;51.536;7.562;2023-03-01T01:38:43;5.65;;;4.47;;
50219;SDS011;36110;51.536;7.562;2023-03-01T01:41:09;6.70;;;4.53;;
50219;SDS011;36110;51.536;7.562;2023-03-01T01:43:42;5.38;;;4.32;;
50219;SDS011;36110;51.536;7.562;2023-03-01T01:48:58;5.07;;;4.25;;
50219;SDS011;36110;51.536;7.562;2023-03-01T01:51:28;5.38;;;4.22;;
50219;SDS011;36110;51.536;7.562;2023-03-01T01:56:28;5.30;;;3.97;;
50219;SDS011;36110;51.536;7.562;2023-03-01T01:58:54;5.10;;;4.40;;
50219;SDS011;36110;51.536;7.562;2023-03-01T02:01:20;8.52;;;4.50;;
50219;SDS011;36110;51.536;7.562;2023-03-01T02:03:45;7.47;;;4.55;;
50219;SDS011;36110;51.536;7.562;2023-03-01T02:06:13;5.50;;;4.88;;
50219;SDS011;36110;51.536;7.562;2023-03-01T02:08:44;5.88;;;4.60;;
50219;SDS011;36110;51.536;7.562;2023-03-01T02:11:11;6.40;;;4.78;;
50219;SDS011;36110;51.536;7.562;2023-03-01T02:13:39;6.40;;;4.53;;
50219;SDS011;36110;51.536;7.562;2023-03-01T02:16:08;5.90;;;4.35;;
50219;SDS011;36110;51.536;7.562;2023-03-01T02:18:34;4.70;;;4.03;;
50219;SDS011;36110;51.536;7.562;2023-03-01T02:24:10;4.70;;;4.18;;
50219;SDS011;36110;51.536;7.562;2023-03-01T02:26:46;7.00;;;4.40;;
50219;SDS011;36110;51.536;7.562;2023-03-01T02:29:14;5.47;;;4.53;;
50219;SDS011;36110;51.536;7.562;2023-03-01T02:31:39;5.53;;;4.45;;
50219;SDS011;36110;51.536;7.562;2023-03-01T02:34:12;5.68;;;4.30;;
50219;SDS011;36110;51.536;7.562;2023-03-01T02:36:47;5.57;;;4.28;;
50219;SDS011;36110;51.536;7.562;2023-03-01T02:39:17;4.22;;;3.78;;
50219;SDS011;36110;51.536;7.562;2023-03-01T02:41:52;5.55;;;4.35;;
50219;SDS011;36110;51.536;7.562;2023-03-01T02:44:19;6.57;;;4.75;;
50219;SDS011;36110;51.536;7.562;2023-03-01T02:46:47;5.28;;;4.60;;
50219;SDS011;36110;51.536;7.562;2023-03-01T02:49:22;4.95;;;4.25;;
50219;SDS011;36110;51.536;7.562;2023-03-01T02:54:44;5.38;;;4.47;;
50219;SDS011;36110;51.536;7.562;2023-03-01T02:57:12;4.93;;;4.40;;
50219;SDS011;36110;51.536;7.562;2023-03-01T02:59:37;6.20;;;3.95;;
50219;SDS011;36110;51.536;7.562;2023-03-01T03:02:07;4.55;;;4.13;;
50219;SDS011;36110;51.536;7.562;2023-03-01T03:05:00;6.20;;;4.32;;
50219;SDS011;36110;51.536;7.562;2023-03-01T03:07:43;6.13;;;4.55;;
50219;SDS011;36110;51.536;7.562;2023-03-01T03:10:10;4.93;;;4.30;;
50219;SDS011;36110;51.536;7.562;2023-03-01T03:12:40;5.10;;;4.55;;
50219;SDS011;36110;51.536;7.562;2023-03-01T03:15:06;4.32;;;3.92;;
50219;SDS011;36110;51.536;7.562;2023-03-01T03:17:34;4.65;;;4.18;;
50219;SDS011;36110;51.536;7.562;2023-03-01T03:20:01;5.22;;;4.28;;
50219;SDS011;36110;51.536;7.562;2023-03-01T03:22:28;5.00;;;4.28;;
50219;SDS011;36110;51.536;7.562;2023-03-01T03:24:53;4.78;;;4.28;;
50219;SDS011;36110;51.536;7.562;2023-03-01T03:27:19;4.93;;;4.30;;
50219;SDS011;36110;51.536;7.562;2023-03-01T03:29:44;4.68;;;4.03;;
50219;SDS011;36110;51.536;7.562;2023-03-01T03:32:09;4.85;;;4.35;;
50219;SDS011;36110;51.536;7.562;2023-03-01T03:34:34;6.28;;;4.68;;
50219;SDS011;36110;51.536;7.562;2023-03-01T03:37:00;5.15;;;4.65;;
50219;SDS011;36110;51.536;7.562;2023-03-01T03:39:26;5.22;;;4.68;;
50219;SDS011;36110;51.536;7.562;2023-03-01T03:41:52;4.85;;;4.30;;
50219;SDS011;36110;51.536;7.562;2023-03-01T03:44:18;5.70;;;4.28;;
50219;SDS011;36110;51.536;7.562;2023-03-01T03:46:43;5.88;;;4.43;;
50219;SDS011;36110;51.536;7.562;2023-03-01T03:49:08;5.82;;;4.63;;
50219;SDS011;36110;51.536;7.562;2023-03-01T03:51:33;6.85;;;4.53;;
50219;SDS011;36110;51.536;7.562;2023-03-01T03:53:59;5.07;;;4.15;;
50219;SDS011;36110;51.536;7.562;2023-03-01T03:56:24;5.35;;;4.38;;
50219;SDS011;36110;51.536;7.562;2023-03-01T03:58:50;5.38;;;4.40;;
50219;SDS011;36110;51.536;7.562;2023-03-01T04:01:16;5.38;;;4.25;;
50219;SDS011;36110;51.536;7.562;2023-03-01T04:03:41;6.00;;;4.18;;
50219;SDS011;36110;51.536;7.562;2023-03-01T04:08:38;7.72;;;4.78;;
50219;SDS011;36110;51.536;7.562;2023-03-01T04:11:04;4.90;;;4.40;;
50219;SDS011;36110;51.536;7.562;2023-03-01T04:13:49;4.55;;;4.07;;
50219;SDS011;36110;51.536;7.562;2023-03-01T04:16:15;5.80;;;4.03;;
50219;SDS011;36110;51.536;7.562;2023-03-01T04:18:41;5.00;;;3.80;;
50219;SDS011;36110;51.536;7.562;2023-03-01T04:21:07;4.50;;;3.92;;
50219;SDS011;36110;51.536;7.562;2023-03-01T04:23:32;4.88;;;3.95;;
50219;SDS011;36110;51.536;7.562;2023-03-01T04:25:58;6.65;;;4.30;;
50219;SDS011;36110;51.536;7.562;2023-03-01T04:28:25;5.47;;;4.40;;
50219;SDS011;36110;51.536;7.562;2023-03-01T04:31:05;5.72;;;4.45;;
50219;SDS011;36110;51.536;7.562;2023-03-01T04:33:41;4.82;;;4.32;;
50219;SDS011;36110;51.536;7.562;2023-03-01T04:36:09;5.03;;;4.20;;
50219;SDS011;36110;51.536;7.562;2023-03-01T04:38:36;5.65;;;4.35;;
50219;SDS011;36110;51.536;7.562;2023-03-01T04:41:03;6.80;;;4.20;;
50219;SDS011;36110;51.536;7.562;2023-03-01T04:43:29;6.93;;;4.38;;
50219;SDS011;36110;51.536;7.562;2023-03-01T04:45:54;5.20;;;4.22;;
50219;SDS011;36110;51.536;7.562;2023-03-01T04:48:20;4.85;;;3.95;;
50219;SDS011;36110;51.536;7.562;2023-03-01T04:50:45;4.68;;;4.15;;
50219;SDS011;36110;51.536;7.562;2023-03-01T04:53:10;8.38;;;4.00;;
50219;SDS011;36110;51.536;7.562;2023-03-01T04:55:36;6.00;;;4.35;;
50219;SDS011;36110;51.536;7.562;2023-03-01T04:58:01;5.05;;;3.85;;
50219;SDS011;36110;51.536;7.562;2023-03-01T05:00:26;5.55;;;4.30;;
50219;SDS011;36110;51.536;7.562;2023-03-01T05:02:55;5.97;;;4.35;;
50219;SDS011;36110;51.536;7.562;2023-03-01T05:05:23;4.60;;;3.85;;
50219;SDS011;36110;51.536;7.562;2023-03-01T05:07:54;4.97;;;3.90;;
50219;SDS011;36110;51.536;7.562;2023-03-01T05:10:20;6.88;;;4.50;;
50219;SDS011;36110;51.536;7.562;2023-03-01T05:12:46;5.78;;;4.07;;
50219;SDS011;36110;51.536;7.562;2023-03-01T05:15:11;5.57;;;4.00;;
50219;SDS011;36110;51.536;7.562;2023-03-01T05:17:37;4.90;;;4.10;;
50219;SDS011;36110;51.536;7.562;2023-03-01T05:20:02;7.68;;;4.60;;
50219;SDS011;36110;51.536;7.562;2023-03-01T05:22:32;6.55;;;4.25;;
50219;SDS011;36110;51.536;7.562;2023-03-01T05:24:57;5.35;;;4.32;;
50219;SDS011;36110;51.536;7.562;2023-03-01T05:27:23;6.45;;;4.10;;
50219;SDS011;36110;51.536;7.562;2023-03-01T05:29:48;5.55;;;4.10;;
50219;SDS011;36110;51.536;7.562;2023-03-01T05:32:13;6.00;;;4.43;;
50219;SDS011;36110;51.536;7.562;2023-03-01T05:34:40;6.25;;;4.30;;
50219;SDS011;36110;51.536;7.562;2023-03-01T05:37:06;6.38;;;4.30;;
50219;SDS011;36110;51.536;7.562;2023-03-01T05:39:32;5.97;;;4.47;;
50219;SDS011;36110;51.536;7.562;2023-03-01T05:41:59;5.90;;;4.05;;
50219;SDS011;36110;51.536;7.562;2023-03-01T05:44:26;5.20;;;4.30;;
50219;SDS011;36110;51.536;7.562;2023-03-01T05:46:53;5.30;;;4.05;;
50219;SDS011;36110;51.536;7.562;2023-03-01T05:49:19;6.22;;;4.18;;
50219;SDS011;36110;51.536;7.562;2023-03-01T05:51:48;6.43;;;4.18;;
50219;SDS011;36110;51.536;7.562;2023-03-01T05:54:14;6.15;;;4.30;;
50219;SDS011;36110;51.536;7.562;2023-03-01T05:56:40;6.15;;;4.38;;
50219;SDS011;36110;51.536;7.562;2023-03-01T05:59:05;7.45;;;4.30;;
50219;SDS011;36110;51.536;7.562;2023-03-01T06:01:34;6.63;;;4.35;;
50219;SDS011;36110;51.536;7.562;2023-03-01T06:04:00;5.40;;;4.05;;
50219;SDS011;36110;51.536;7.562;2023-03-01T06:06:25;6.70;;;4.40;;
50219;SDS011;36110;51.536;7.562;2023-03-01T06:08:51;5.85;;;4.32;;
50219;SDS011;36110;51.536;7.562;2023-03-01T06:11:17;6.50;;;4.38;;
50219;SDS011;36110;51.536;7.562;2023-03-01T06:13:43;5.90;;;4.35;;
50219;SDS011;36110;51.536;7.562;2023-03-01T06:16:09;5.38;;;4.38;;
50219;SDS011;36110;51.536;7.562;2023-03-01T06:18:35;6.97;;;4.63;;
50219;SDS011;36110;51.536;7.562;2023-03-01T06:21:00;6.13;;;4.88;;
50219;SDS011;36110;51.536;7.562;2023-03-01T06:23:26;6.07;;;4.13;;
50219;SDS011;36110;51.536;7.562;2023-03-01T06:25:51;5.53;;;4.25;;
50219;SDS011;36110;51.536;7.562;2023-03-01T06:28:17;5.78;;;4.38;;
50219;SDS011;36110;51.536;7.562;2023-03-01T06:30:42;6.70;;;4.90;;
50219;SDS011;36110;51.536;7.562;2023-03-01T06:33:07;7.00;;;4.15;;
50219;SDS011;36110;51.536;7.562;2023-03-01T06:35:33;7.30;;;4.13;;
50219;SDS011;36110;51.536;7.562;2023-03-01T06:37:59;5.13;;;4.00;;
50219;SDS011;36110;51.536;7.562;2023-03-01T06:40:25;6.35;;;4.07;;
50219;SDS011;36110;51.536;7.562;2023-03-01T06:42:50;20.83;;;14.18;;
50219;SDS011;36110;51.536;7.562;2023-03-01T06:45:16;21.42;;;13.23;;
50219;SDS011;36110;51.536;7.562;2023-03-01T06:47:43;21.33;;;13.30;;
50219;SDS011;36110;51.536;7.562;2023-03-01T06:50:08;19.15;;;13.45;;
50219;SDS011;36110;51.536;7.562;2023-03-01T06:52:34;20.27;;;13.57;;
50219;SDS011;36110;51.536;7.562;2023-03-01T06:54:59;26.17;;;13.35;;
50219;SDS011;36110;51.536;7.562;2023-03-01T06:57:25;20.13;;;14.23;;
50219;SDS011;36110;51.536;7.562;2023-03-01T06:59:50;21.20;;;14.07;;
50219;SDS011;36110;51.536;7.562;2023-03-01T07:02:16;21.33;;;14.05;;
50219;SDS011;36110;51.536;7.562;2023-03-01T07:04:41;17.58;;;12.93;;
50219;SDS011;36110;51.536;7.562;2023-03-01T07:07:07;18.77;;;13.68;;
50219;SDS011;36110;51.536;7.562;2023-03-01T07:09:32;20.80;;;13.85;;
50219;SDS011;36110;51.536;7.562;2023-03-01T07:11:58;18.70;;;13.48;;
50219;SDS011;36110;51.536;7.562;2023-03-01T07:14:23;22.73;;;14.02;;
50219;SDS011;36110;51.536;7.562;2023-03-01T07:16:50;19.23;;;14.00;;
50219;SDS011;36110;51.536;7.562;2023-03-01T07:19:16;18.90;;;13.43;;
50219;SDS011;36110;51.536;7.562;2023-03-01T07:21:41;20.60;;;13.73;;
50219;SDS011;36110;51.536;7.562;2023-03-01T07:24:07;31.45;;;14.65;;
50219;SDS011;36110;51.536;7.562;2023-03-01T07:26:32;19.48;;;13.85;;
50219;SDS011;36110;51.536;7.562;2023-03-01T07:28:58;23.38;;;13.75;;
50219;SDS011;36110;51.536;7.562;2023-03-01T07:31:24;23.73;;;16.25;;
50219;SDS011;36110;51.536;7.562;2023-03-01T07:33:52;23.15;;;15.38;;
50219;SDS011;36110;51.536;7.562;2023-03-01T07:36:18;22.77;;;15.48;;
50219;SDS011;36110;51.536;7.562;2023-03-01T07:38:43;27.35;;;17.85;;
50219;SDS011;36110;51.536;7.562;2023-03-01T07:41:08;24.83;;;16.88;;
50219;SDS011;36110;51.536;7.562;2023-03-01T07:43:33;22.30;;;15.75;;
50219;SDS011;36110;51.536;7.562;2023-03-01T07:46:00;23.52;;;16.35;;
50219;SDS011;36110;51.536;7.562;2023-03-01T07:48:25;28.15;;;18.10;;
50219;SDS011;36110;51.536;7.562;2023-03-01T07:50:51;21.58;;;15.48;;
50219;SDS011;36110;51.536;7.562;2023-03-01T07:53:16;22.70;;;14.50;;
50219;SDS011;36110;51.536;7.562;2023-03-01T07:55:41;24.33;;;14.90;;
50219;SDS011;36110;51.536;7.562;2023-03-01T07:58:07;21.58;;;14.63;;
50219;SDS011;36110;51.536;7.562;2023-03-01T08:00:32;21.08;;;15.38;;
50219;SDS011;36110;51.536;7.562;2023-03-01T08:03:01;24.33;;;16.15;;
50219;SDS011;36110;51.536;7.562;2023-03-01T08:05:26;25.85;;;16.67;;
50219;SDS011;36110;51.536;7.562;2023-03-01T08:07:52;21.13;;;14.85;;
50219;SDS011;36110;51.536;7.562;2023-03-01T08:10:19;19.58;;;14.20;;
50219;SDS011;36110;51.536;7.562;2023-03-01T08:12:44;20.50;;;14.63;;
50219;SDS011;36110;51.536;7.562;2023-03-01T08:15:09;23.40;;;14.70;;
50219;SDS011;36110;51.536;7.562;2023-03-01T08:17:35;20.83;;;14.70;;
50219;SDS011;36110;51.536;7.562;2023-03-01T08:20:00;19.88;;;14.30;;
50219;SDS011;36110;51.536;7.562;2023-03-01T08:22:26;23.50;;;14.15;;
50219;SDS011;36110;51.536;7.562;2023-03-01T08:24:51;22.15;;;13.55;;
50219;SDS011;36110;51.536;7.562;2023-03-01T08:27:16;19.80;;;13.10;;
50219;SDS011;36110;51.536;7.562;2023-03-01T08:29:42;19.30;;;12.82;;
50219;SDS011;36110;51.536;7.562;2023-03-01T08:32:07;25.23;;;12.63;;
50219;SDS011;36110;51.536;7.562;2023-03-01T08:34:32;16.73;;;12.25;;
50219;SDS011;36110;51.536;7.562;2023-03-01T08:37:00;19.55;;;13.02;;
50219;SDS011;36110;51.536;7.562;2023-03-01T08:39:26;17.10;;;11.88;;
50219;SDS011;36110;51.536;7.562;2023-03-01T08:41:52;18.13;;;11.90;;
50219;SDS011;36110;51.536;7.562;2023-03-01T08:44:17;19.27;;;11.63;;
50219;SDS011;36110;51.536;7.562;2023-03-01T08:46:43;15.75;;;10.75;;
50219;SDS011;36110;51.536;7.562;2023-03-01T08:49:10;15.52;;;10.50;;
50219;SDS011;36110;51.536;7.562;2023-03-01T08:51:37;14.80;;;11.20;;
50219;SDS011;36110;51.536;7.562;2023-03-01T08:54:04;19.05;;;11.18;;
50219;SDS011;36110;51.536;7.562;2023-03-01T08:56:29;18.45;;;10.63;;
50219;SDS011;36110;51.536;7.562;2023-03-01T08:58:55;15.88;;;12.07;;
50219;SDS011;36110;51.536;7.562;2023-03-01T09:01:20;15.45;;;10.15;;
50219;SDS011;36110;51.536;7.562;2023-03-01T09:03:45;20.10;;;11.60;;
50219;SDS011;36110;51.536;7.562;2023-03-01T09:06:11;18.38;;;11.18;;
50219;SDS011;36110;51.536;7.562;2023-03-01T09:08:38;15.77;;;10.05;;
50219;SDS011;36110;51.536;7.562;2023-03-01T09:11:04;13.90;;;11.10;;
50219;SDS011;36110;51.536;7.562;2023-03-01T09:13:31;17.63;;;10.43;;
50219;SDS011;36110;51.536;7.562;2023-03-01T09:15:57;20.63;;;11.00;;
50219;SDS011;36110;51.536;7.562;2023-03-01T09:18:23;16.83;;;10.25;;
50219;SDS011;36110;51.536;7.562;2023-03-01T09:20:48;15.30;;;10.05;;
50219;SDS011;36110;51.536;7.562;2023-03-01T09:23:13;14.82;;;9.95;;
50219;SDS011;36110;51.536;7.562;2023-03-01T09:25:39;15.93;;;10.10;;
50219;SDS011;36110;51.536;7.562;2023-03-01T09:28:04;15.50;;;9.55;;
50219;SDS011;36110;51.536;7.562;2023-03-01T09:30:29;14.13;;;8.95;;
50219;SDS011;36110;51.536;7.562;2023-03-01T09:32:56;12.00;;;8.68;;
50219;SDS011;36110;51.536;7.562;2023-03-01T09:35:21;14.18;;;10.10;;
50219;SDS011;36110;51.536;7.562;2023-03-01T09:37:47;15.38;;;10.63;;
50219;SDS011;36110;51.536;7.562;2023-03-01T09:40:15;15.55;;;9.02;;
50219;SDS011;36110;51.536;7.562;2023-03-01T09:42:48;16.98;;;9.05;;
50219;SDS011;36110;51.536;7.562;2023-03-01T09:45:26;15.38;;;8.80;;
50219;SDS011;36110;51.536;7.562;2023-03-01T09:47:54;13.60;;;9.75;;
50219;SDS011;36110;51.536;7.562;2023-03-01T09:50:20;13.05;;;8.55;;
50219;SDS011;36110;51.536;7.562;2023-03-01T09:52:48;14.68;;;9.10;;
50219;SDS011;36110;51.536;7.562;2023-03-01T09:55:20;12.82;;;9.48;;
50219;SDS011;36110;51.536;7.562;2023-03-01T10:00:43;16.70;;;8.90;;
50219;SDS011;36110;51.536;7.562;2023-03-01T10:03:26;11.00;;;8.80;;
50219;SDS011;36110;51.536;7.562;2023-03-01T10:08:57;9.93;;;7.68;;
50219;SDS011;36110;51.536;7.562;2023-03-01T10:11:24;13.38;;;8.18;;
50219;SDS011;36110;51.536;7.562;2023-03-01T10:16:51;12.40;;;7.28;;
50219;SDS011;36110;51.536;7.562;2023-03-01T10:19:23;11.25;;;7.57;;
50219;SDS011;36110;51.536;7.562;2023-03-01T10:21:52;12.07;;;8.27;;
50219;SDS011;36110;51.536;7.562;2023-03-01T10:24:18;11.18;;;7.72;;
50219;SDS011;36110;51.536;7.562;2023-03-01T10:29:48;14.52;;;8.05;;
50219;SDS011;36110;51.536;7.562;2023-03-01T10:32:19;15.55;;;7.85;;
50219;SDS011;36110;51.536;7.562;2023-03-01T10:34:46;15.18;;;8.10;;
50219;SDS011;36110;51.536;7.562;2023-03-01T10:37:13;15.73;;;8.40;;
50219;SDS011;36110;51.536;7.562;2023-03-01T10:39:57;11.27;;;6.90;;
50219;SDS011;36110;51.536;7.562;2023-03-01T10:42:31;13.68;;;8.05;;
50219;SDS011;36110;51.536;7.562;2023-03-01T10:44:57;14.70;;;7.97;;
50219;SDS011;36110;51.536;7.562;2023-03-01T10:47:25;16.27;;;8.15;;
50219;SDS011;36110;51.536;7.562;2023-03-01T10:49:53;11.15;;;7.88;;
50219;SDS011;36110;51.536;7.562;2023-03-01T10:52:19;11.23;;;7.32;;
50219;SDS011;36110;51.536;7.562;2023-03-01T10:54:51;14.40;;;7.78;;
50219;SDS011;36110;51.536;7.562;2023-03-01T10:57:24;12.10;;;8.00;;
50219;SDS011;36110;51.536;7.562;2023-03-01T11:00:16;13.10;;;8.10;;
50219;SDS011;36110;51.536;7.562;2023-03-01T11:02:45;13.45;;;7.75;;
50219;SDS011;36110;51.536;7.562;2023-03-01T11:07:54;12.13;;;8.25;;
50219;SDS011;36110;51.536;7.562;2023-03-01T11:10:23;10.93;;;7.75;;
50219;SDS011;36110;51.536;7.562;2023-03-01T11:12:50;11.13;;;7.00;;
50219;SDS011;36110;51.536;7.562;2023-03-01T11:15:26;13.80;;;8.07;;
50219;SDS011;36110;51.536;7.562;2023-03-01T11:17:52;10.57;;;7.70;;
50219;SDS011;36110;51.536;7.562;2023-03-01T11:25:23;15.43;;;8.27;;
50219;SDS011;36110;51.536;7.562;2023-03-01T11:27:51;11.18;;;7.55;;
50219;SDS011;36110;51.536;7.562;2023-03-01T11:33:37;13.50;;;8.25;;
50219;SDS011;36110;51.536;7.562;2023-03-01T11:35:45;12.07;;;8.10;;
50219;SDS011;36110;51.536;7.562;2023-03-01T11:38:20;11.98;;;7.82;;
50219;SDS011;36110;51.536;7.562;2023-03-01T11:41:00;11.40;;;7.55;;
50219;SDS011;36110;51.536;7.562;2023-03-01T11:43:36;11.48;;;7.75;;
50219;SDS011;36110;51.536;7.562;2023-03-01T11:56:51;11.40;;;6.95;;
50219;SDS011;36110;51.536;7.562;2023-03-01T12:05:24;10.50;;;7.25;;
50219;SDS011;36110;51.536;7.562;2023-03-01T12:08:10;15.38;;;8.48;;
50219;SDS011;36110;51.536;7.562;2023-03-01T12:10:55;16.25;;;7.30;;
50219;SDS011;36110;51.536;7.562;2023-03-01T12:19:15;13.23;;;8.07;;
50219;SDS011;36110;51.536;7.562;2023-03-01T12:22:07;10.85;;;7.55;;
50219;SDS011;36110;51.536;7.562;2023-03-01T12:27:46;9.93;;;6.53;;
50219;SDS011;36110;51.536;7.562;2023-03-01T12:30:23;11.10;;;8.15;;
50219;SDS011;36110;51.536;7.562;2023-03-01T12:38:42;11.90;;;7.97;;
50219;SDS011;36110;51.536;7.562;2023-03-01T12:44:04;11.05;;;7.20;;
50219;SDS011;36110;51.536;7.562;2023-03-01T12:49:50;12.13;;;8.00;;
50219;SDS011;36110;51.536;7.562;2023-03-01T12:52:22;10.00;;;7.05;;
50219;SDS011;36110;51.536;7.562;2023-03-01T12:54:54;12.32;;;6.60;;
50219;SDS011;36110;51.536;7.562;2023-03-01T12:58:04;10.82;;;7.75;;
50219;SDS011;36110;51.536;7.562;2023-03-01T13:00:28;9.48;;;6.72;;
50219;SDS011;36110;51.536;7.562;2023-03-01T13:08:18;12.38;;;7.07;;
50219;SDS011;36110;51.536;7.562;2023-03-01T13:10:51;10.23;;;7.40;;
50219;SDS011;36110;51.536;7.562;2023-03-01T13:13:22;11.77;;;7.18;;
50219;SDS011;36110;51.536;7.562;2023-03-01T13:15:49;7.90;;;6.18;;
50219;SDS011;36110;51.536;7.562;2023-03-01T13:23:28;10.10;;;6.85;;
50219;SDS011;36110;51.536;7.562;2023-03-01T13:26:09;10.32;;;7.07;;
50219;SDS011;36110;51.536;7.562;2023-03-01T13:33:52;10.48;;;7.15;;
50219;SDS011;36110;51.536;7.562;2023-03-01T13:38:56;14.02;;;7.50;;
50219;SDS011;36110;51.536;7.562;2023-03-01T13:46:58;8.05;;;6.15;;
50219;SDS011;36110;51.536;7.562;2023-03-01T13:49:27;9.20;;;6.55;;
50219;SDS011;36110;51.536;7.562;2023-03-01T13:51:54;10.13;;;6.55;;
50219;SDS011;36110;51.536;7.562;2023-03-01T13:54:24;11.02;;;6.63;;
50219;SDS011;36110;51.536;7.562;2023-03-01T13:56:51;9.15;;;5.97;;
50219;SDS011;36110;51.536;7.562;2023-03-01T13:59:19;7.68;;;6.07;;
50219;SDS011;36110;51.536;7.562;2023-03-01T14:01:53;8.73;;;6.68;;
50219;SDS011;36110;51.536;7.562;2023-03-01T14:04:21;10.40;;;6.57;;
50219;SDS011;36110;51.536;7.562;2023-03-01T14:06:47;8.23;;;6.10;;
50219;SDS011;36110;51.536;7.562;2023-03-01T14:09:20;9.30;;;6.32;;
50219;SDS011;36110;51.536;7.562;2023-03-01T14:20:41;10.98;;;7.03;;
50219;SDS011;36110;51.536;7.562;2023-03-01T14:23:12;11.82;;;6.50;;
50219;SDS011;36110;51.536;7.562;2023-03-01T14:25:45;12.20;;;6.32;;
50219;SDS011;36110;51.536;7.562;2023-03-01T14:28:18;9.77;;;6.93;;
50219;SDS011;36110;51.536;7.562;2023-03-01T14:30:46;9.65;;;6.45;;
50219;SDS011;36110;51.536;7.562;2023-03-01T14:35:59;11.65;;;6.57;;
50219;SDS011;36110;51.536;7.562;2023-03-01T14:38:33;9.43;;;6.45;;
50219;SDS011;36110;51.536;7.562;2023-03-01T14:41:00;10.23;;;5.88;;
50219;SDS011;36110;51.536;7.562;2023-03-01T14:43:27;8.77;;;5.97;;
50219;SDS011;36110;51.536;7.562;2023-03-01T14:45:54;9.82;;;6.43;;
50219;SDS011;36110;51.536;7.562;2023-03-01T14:48:19;8.35;;;6.50;;
50219;SDS011;36110;51.536;7.562;2023-03-01T14:50:45;11.75;;;6.55;;
50219;SDS011;36110;51.536;7.562;2023-03-01T14:53:21;11.02;;;6.30;;
50219;SDS011;36110;51.536;7.562;2023-03-01T14:55:50;7.50;;;5.80;;
50219;SDS011;36110;51.536;7.562;2023-03-01T14:58:19;8.98;;;6.13;;
50219;SDS011;36110;51.536;7.562;2023-03-01T15:00:53;8.50;;;6.10;;
50219;SDS011;36110;51.536;7.562;2023-03-01T15:03:25;8.73;;;6.15;;
50219;SDS011;36110;51.536;7.562;2023-03-01T15:05:53;8.75;;;6.40;;
50219;SDS011;36110;51.536;7.562;2023-03-01T15:08:19;12.52;;;6.45;;
50219;SDS011;36110;51.536;7.562;2023-03-01T15:10:56;7.88;;;6.03;;
50219;SDS011;36110;51.536;7.562;2023-03-01T15:13:24;8.80;;;6.75;;
50219;SDS011;36110;51.536;7.562;2023-03-01T15:15:51;11.70;;;6.13;;
50219;SDS011;36110;51.536;7.562;2023-03-01T15:18:20;8.60;;;5.93;;
50219;SDS011;36110;51.536;7.562;2023-03-01T15:20:47;9.60;;;6.65;;
50219;SDS011;36110;51.536;7.562;2023-03-01T15:23:21;9.27;;;5.97;;
50219;SDS011;36110;51.536;7.562;2023-03-01T15:25:48;9.45;;;6.38;;
50219;SDS011;36110;51.536;7.562;2023-03-01T15:28:21;8.10;;;5.70;;
50219;SDS011;36110;51.536;7.562;2023-03-01T15:30:55;8.18;;;5.50;;
50219;SDS011;36110;51.536;7.562;2023-03-01T15:34:10;10.07;;;6.22;;
50219;SDS011;36110;51.536;7.562;2023-03-01T15:36:58;7.88;;;5.30;;
50219;SDS011;36110;51.536;7.562;2023-03-01T15:41:58;6.90;;;4.95;;
50219;SDS011;36110;51.536;7.562;2023-03-01T15:44:32;9.27;;;6.53;;
50219;SDS011;36110;51.536;7.562;2023-03-01T15:46:59;7.53;;;5.63;;
50219;SDS011;36110;51.536;7.562;2023-03-01T15:52:28;8.85;;;6.18;;
50219;SDS011;36110;51.536;7.562;2023-03-01T15:55:00;7.35;;;5.63;;
50219;SDS011;36110;51.536;7.562;2023-03-01T15:57:27;7.00;;;4.72;;
50219;SDS011;36110;51.536;7.562;2023-03-01T15:59:53;6.13;;;5.10;;
50219;SDS011;36110;51.536;7.562;2023-03-01T16:02:18;8.75;;;5.90;;
50219;SDS011;36110;51.536;7.562;2023-03-01T16:04:45;11.95;;;5.85;;
50219;SDS011;36110;51.536;7.562;2023-03-01T16:07:11;8.90;;;6.00;;
50219;SDS011;36110;51.536;7.562;2023-03-01T16:09:36;9.55;;;5.45;;
50219;SDS011;36110;51.536;7.562;2023-03-01T16:12:02;8.70;;;5.55;;
50219;SDS011;36110;51.536;7.562;2023-03-01T16:14:28;8.02;;;5.15;;
50219;SDS011;36110;51.536;7.562;2023-03-01T16:16:53;8.30;;;5.85;;
50219;SDS011;36110;51.536;7.562;2023-03-01T16:19:18;7.10;;;4.93;;
50219;SDS011;36110;51.536;7.562;2023-03-01T16:21:44;6.43;;;5.18;;
50219;SDS011;36110;51.536;7.562;2023-03-01T16:24:11;9.85;;;5.30;;
50219;SDS011;36110;51.536;7.562;2023-03-01T16:26:40;11.80;;;6.35;;
50219;SDS011;36110;51.536;7.562;2023-03-01T16:29:06;6.20;;;5.20;;
50219;SDS011;36110;51.536;7.562;2023-03-01T16:31:32;7.78;;;5.63;;
50219;SDS011;36110;51.536;7.562;2023-03-01T16:33:58;8.45;;;5.50;;
50219;SDS011;36110;51.536;7.562;2023-03-01T16:36:25;11.98;;;6.20;;
50219;SDS011;36110;51.536;7.562;2023-03-01T16:38:53;6.95;;;4.95;;
50219;SDS011;36110;51.536;7.562;2023-03-01T16:41:19;7.18;;;5.32;;